Time,TemperatureF,DewpointF,PressureIn,WindDirection,WindDirectionDegrees,WindSpeedMPH,WindSpeedGustMPH,Humidity,HourlyPrecipIn,Conditions,Clouds,dailyrainin,SoftwareType,DateUTC
2013-01-07 00:00:00,61.2,59.1,30.08,North,0,5.0,9.0,93,0.00,RA,RA,0.00,WeatherDisplay:10.37,2013-01-07 05:00:00,
2013-01-07 00:05:00,61.2,59.1,30.08,North,4,5.0,7.0,93,0.00,RA,RA,0.00,WeatherDisplay:10.37,2013-01-07 05:05:00,
2013-01-07 00:10:00,61.0,58.7,30.08,North,357,9.0,13.0,92,0.00,OVC,OVC,0.00,WeatherDisplay:10.37,2013-01-07 05:10:00,
2013-01-07 00:15:00,60.8,58.8,30.07,North,2,6.0,9.0,93,0.00,OVC,OVC,0.00,WeatherDisplay:10.37,2013-01-07 05:15:00,
2013-01-07 00:25:00,60.8,58.8,30.08,North,7,5.0,10.0,93,0.00,OVC,OVC,0.00,WeatherDisplay:10.37,2013-01-07 05:25:00,
2013-01-07 00:30:00,60.8,58.8,30.08,North,5,5.0,10.0,93,0.00,OVC,OVC,0.00,WeatherDisplay:10.37,2013-01-07 05:30:00,
2013-01-07 00:35:00,60.6,58.6,30.07,North,2,6.0,9.0,93,0.00,OVC,OVC,0.00,WeatherDisplay:10.37,2013-01-07 05:35:00,
2013-01-07 00:40:00,60.6,58.6,30.07,North,1,8.0,10.0,93,0.00,OVC,OVC,0.00,WeatherDisplay:10.37,2013-01-07 05:40:00,
2013-01-07 00:50:00,60.6,58.6,30.07,NNE,15,5.0,10.0,93,0.00,OVC,OVC,0.00,WeatherDisplay:10.37,2013-01-07 05:50:00,
2013-01-07 01:00:00,60.4,58.4,30.07,North,4,8.0,12.0,93,0.00,OVC,OVC,0.00,WeatherDisplay:10.37,2013-01-07 06:00:00,
2013-01-07 01:05:00,60.6,58.5,30.07,North,8,7.0,10.0,93,0.00,OVC,OVC,0.00,WeatherDisplay:10.37,2013-01-07 06:05:00,
2013-01-07 01:10:00,60.6,58.6,30.07,North,9,5.0,10.0,93,0.00,OVC,OVC,0.00,WeatherDisplay:10.37,2013-01-07 06:10:00,
2013-01-07 01:20:00,60.6,58.6,30.07,NNE,12,3.0,6.0,93,0.00,OVC,OVC,0.00,WeatherDisplay:10.37,2013-01-07 06:20:00,
2013-01-07 01:30:00,60.4,58.1,30.07,NNE,29,5.0,7.0,92,0.00,OVC,OVC,0.00,WeatherDisplay:10.37,2013-01-07 06:30:00,
2013-01-07 01:40:00,60.4,58.4,30.07,North,8,5.0,7.0,93,0.00,OVC,OVC,0.00,WeatherDisplay:10.37,2013-01-07 06:40:00,
2013-01-07 01:50:00,60.5,58.2,30.06,NNE,26,3.0,6.0,92,0.00,OVC,OVC,0.00,WeatherDisplay:10.37,2013-01-07 06:50:00,
2013-01-07 02:00:00,60.4,58.1,30.06,NE,38,3.0,5.0,92,0.00,OVC,OVC,0.00,WeatherDisplay:10.37,2013-01-07 07:00:00,
2013-01-07 02:05:00,60.6,58.6,30.06,NNE,21,3.0,6.0,93,0.00,OVC,OVC,0.00,WeatherDisplay:10.37,2013-01-07 07:05:00,
2013-01-07 02:10:00,60.6,58.6,30.07,North,7,6.0,7.0,93,0.00,OVC,OVC,0.00,WeatherDisplay:10.37,2013-01-07 07:10:00,
2013-01-07 02:20:00,60.4,58.1,30.07,North,356,5.0,7.0,92,0.00,OVC,OVC,0.00,WeatherDisplay:10.37,2013-01-07 07:20:00,
2013-01-07 02:30:00,60.3,57.9,30.07,North,6,5.0,10.0,92,0.00,OVC,OVC,0.00,WeatherDisplay:10.37,2013-01-07 07:30:00,
2013-01-07 02:40:00,60.1,58.0,30.07,North,360,5.0,9.0,93,0.00,OVC,OVC,0.00,WeatherDisplay:10.37,2013-01-07 07:40:00,
2013-01-07 02:50:00,60.1,58.0,30.07,NNE,12,9.0,10.0,93,0.00,OVC,OVC,0.00,WeatherDisplay:10.37,2013-01-07 07:50:00,
2013-01-07 03:00:00,60.1,58.0,30.07,North,7,6.0,9.0,93,0.00,OVC,OVC,0.00,WeatherDisplay:10.37,2013-01-07 08:00:00,
2013-01-07 03:05:00,60.1,57.7,30.07,North,8,6.0,9.0,92,0.00,OVC,OVC,0.00,WeatherDisplay:10.37,2013-01-07 08:05:00,
2013-01-07 03:10:00,60.1,57.7,30.07,NNE,15,3.0,5.0,92,0.00,OVC,OVC,0.00,WeatherDisplay:10.37,2013-01-07 08:10:00,
2013-01-07 03:20:00,60.1,57.7,30.06,NNE,31,5.0,6.0,92,0.00,OVC,OVC,0.00,WeatherDisplay:10.37,2013-01-07 08:20:00,
2013-01-07 03:30:00,60.1,57.8,30.06,NNE,14,5.0,8.0,92,0.00,OVC,OVC,0.00,WeatherDisplay:10.37,2013-01-07 08:30:00,
2013-01-07 03:40:00,60.3,57.9,30.06,NNE,14,6.0,10.0,92,0.00,OVC,OVC,0.00,WeatherDisplay:10.37,2013-01-07 08:40:00,
2013-01-07 03:50:00,60.3,57.9,30.06,NE,41,5.0,6.0,92,0.00,OVC,OVC,0.00,WeatherDisplay:10.37,2013-01-07 08:50:00,
2013-01-07 04:00:00,60.3,57.9,30.06,NNE,24,5.0,6.0,92,0.00,OVC,OVC,0.00,WeatherDisplay:10.37,2013-01-07 09:00:00,
2013-01-07 04:05:00,60.2,57.9,30.07,NNE,14,6.0,12.0,92,0.00,OVC,OVC,0.00,WeatherDisplay:10.37,2013-01-07 09:05:00,
2013-01-07 04:10:00,60.1,57.4,30.07,NNE,14,6.0,12.0,91,0.00,OVC,OVC,0.00,WeatherDisplay:10.37,2013-01-07 09:10:00,
2013-01-07 04:20:00,60.1,57.4,30.07,NNE,20,6.0,13.0,91,0.00,OVC,OVC,0.00,WeatherDisplay:10.37,2013-01-07 09:20:00,
2013-01-07 04:30:00,60.1,57.1,30.07,NNE,16,5.0,9.0,90,0.00,OVC,OVC,0.00,WeatherDisplay:10.37,2013-01-07 09:30:00,
2013-01-07 04:40:00,59.9,57.0,30.07,North,8,5.0,12.0,90,0.00,OVC,OVC,0.00,WeatherDisplay:10.37,2013-01-07 09:40:00,
2013-01-07 04:50:00,59.7,56.7,30.07,NNE,24,8.0,14.0,90,0.00,OVC,OVC,0.00,WeatherDisplay:10.37,2013-01-07 09:50:00,
2013-01-07 05:00:00,59.4,56.4,30.07,NNE,13,6.0,9.0,90,0.00,OVC,OVC,0.00,WeatherDisplay:10.37,2013-01-07 10:00:00,
2013-01-07 05:05:00,59.4,56.1,30.08,North,7,5.0,8.0,89,0.00,OVC,OVC,0.00,WeatherDisplay:10.37,2013-01-07 10:05:00,
2013-01-07 05:10:00,59.0,55.1,30.08,NNE,27,8.0,15.0,87,0.00,OVC,OVC,0.00,WeatherDisplay:10.37,2013-01-07 10:10:00,
2013-01-07 05:20:00,58.8,55.0,30.09,NNE,14,5.0,14.0,87,0.00,OVC,OVC,0.00,WeatherDisplay:10.37,2013-01-07 10:20:00,
2013-01-07 05:30:00,58.6,55.1,30.09,North,8,6.0,9.0,88,0.00,OVC,OVC,0.00,WeatherDisplay:10.37,2013-01-07 10:30:00,
2013-01-07 05:35:00,58.4,54.5,30.09,North,3,10.0,12.0,87,0.00,OVC,OVC,0.00,WeatherDisplay:10.37,2013-01-07 10:35:00,
2013-01-07 05:45:00,58.1,53.0,30.09,NNE,16,7.0,15.0,83,0.00,OVC,OVC,0.00,WeatherDisplay:10.37,2013-01-07 10:45:00,
2013-01-07 05:50:00,57.9,52.8,30.09,NNE,21,9.0,12.0,83,0.00,OVC,OVC,0.00,WeatherDisplay:10.37,2013-01-07 10:50:00,
2013-01-07 06:00:00,57.7,52.6,30.09,NNE,18,5.0,9.0,83,0.00,OVC,OVC,0.00,WeatherDisplay:10.37,2013-01-07 11:00:00,
2013-01-07 06:05:00,57.6,52.4,30.09,NNE,17,8.0,10.0,83,0.00,OVC,OVC,0.00,WeatherDisplay:10.37,2013-01-07 11:05:00,
2013-01-07 06:10:00,57.6,52.4,30.10,North,10,6.0,8.0,83,0.00,OVC,OVC,0.00,WeatherDisplay:10.37,2013-01-07 11:10:00,
2013-01-07 06:20:00,57.6,52.4,30.11,NNE,16,6.0,10.0,83,0.00,OVC,OVC,0.00,WeatherDisplay:10.37,2013-01-07 11:20:00,
2013-01-07 06:30:00,57.4,52.3,30.11,NNE,23,8.0,15.0,83,0.00,OVC,OVC,0.00,WeatherDisplay:10.37,2013-01-07 11:30:00,
2013-01-07 06:40:00,57.2,52.4,30.11,NNE,24,7.0,10.0,84,0.00,OVC,OVC,0.00,WeatherDisplay:10.37,2013-01-07 11:40:00,
2013-01-07 06:50:00,57.0,51.9,30.12,NNE,22,7.0,14.0,83,0.00,OVC,OVC,0.00,WeatherDisplay:10.37,2013-01-07 11:50:00,
2013-01-07 07:00:00,57.0,52.2,30.12,North,8,5.0,13.0,84,0.00,OVC,OVC,0.00,WeatherDisplay:10.37,2013-01-07 12:00:00,
2013-01-07 07:10:00,57.2,52.4,30.13,NNE,12,6.0,8.0,84,0.00,OVC,OVC,0.00,WeatherDisplay:10.37,2013-01-07 12:10:00,
2013-01-07 07:20:00,56.8,52.1,30.13,North,6,6.0,15.0,84,0.00,OVC,OVC,0.00,WeatherDisplay:10.37,2013-01-07 12:20:00,
2013-01-07 07:30:00,56.5,51.7,30.13,North,3,8.0,12.0,84,0.00,OVC,OVC,0.00,WeatherDisplay:10.37,2013-01-07 12:30:00,
2013-01-07 07:40:00,56.4,50.9,30.13,North,9,8.0,11.0,82,0.00,OVC,OVC,0.00,WeatherDisplay:10.37,2013-01-07 12:40:00,
2013-01-07 07:50:00,56.3,51.2,30.13,NNE,17,5.0,9.0,83,0.00,OVC,OVC,0.00,WeatherDisplay:10.37,2013-01-07 12:50:00,
2013-01-07 08:00:00,56.2,50.8,30.14,North,4,8.0,12.0,82,0.00,OVC,OVC,0.00,WeatherDisplay:10.37,2013-01-07 13:00:00,
2013-01-07 08:05:00,56.1,50.7,30.14,North,8,7.0,12.0,82,0.00,OVC,OVC,0.00,WeatherDisplay:10.37,2013-01-07 13:05:00,
2013-01-07 08:10:00,56.1,50.7,30.14,North,9,6.0,12.0,82,0.00,OVC,OVC,0.00,WeatherDisplay:10.37,2013-01-07 13:10:00,
2013-01-07 08:20:00,56.3,51.2,30.14,North,6,7.0,14.0,83,0.00,OVC,OVC,0.00,WeatherDisplay:10.37,2013-01-07 13:20:00,
2013-01-07 08:30:00,56.5,51.4,30.15,North,8,6.0,10.0,83,0.00,OVC,OVC,0.00,WeatherDisplay:10.37,2013-01-07 13:30:00,
2013-01-07 08:40:00,56.5,51.4,30.15,North,1,5.0,10.0,83,0.00,OVC,OVC,0.00,WeatherDisplay:10.37,2013-01-07 13:40:00,
2013-01-07 08:50:00,56.5,51.4,30.15,North,6,6.0,9.0,83,0.00,OVC,OVC,0.00,WeatherDisplay:10.37,2013-01-07 13:50:00,
2013-01-07 09:00:00,56.5,51.1,30.15,North,5,7.0,12.0,82,0.00,OVC,OVC,0.00,WeatherDisplay:10.37,2013-01-07 14:00:00,
2013-01-07 09:05:00,56.5,51.4,30.15,North,5,7.0,9.0,83,0.00,BKN,BKN,0.00,WeatherDisplay:10.37,2013-01-07 14:05:00,
2013-01-07 09:10:00,56.5,51.4,30.16,North,2,7.0,13.0,83,0.00,BKN,BKN,0.00,WeatherDisplay:10.37,2013-01-07 14:10:00,
2013-01-07 09:20:00,57.2,52.1,30.15,North,11,7.0,8.0,83,0.00,BKN,BKN,0.00,WeatherDisplay:10.37,2013-01-07 14:20:00,
2013-01-07 09:30:00,57.4,51.6,30.15,North,9,9.0,12.0,81,0.00,BKN,BKN,0.00,WeatherDisplay:10.37,2013-01-07 14:30:00,
2013-01-07 09:40:00,57.8,52.3,30.15,NNE,15,6.0,8.0,82,0.00,BKN,BKN,0.00,WeatherDisplay:10.37,2013-01-07 14:40:00,
2013-01-07 09:50:00,58.5,52.7,30.15,NNE,19,3.0,9.0,81,0.00,BKN,BKN,0.00,WeatherDisplay:10.37,2013-01-07 14:50:00,
2013-01-07 10:00:00,59.2,52.7,30.15,NNE,26,6.0,9.0,79,0.00,BKN,BKN,0.00,WeatherDisplay:10.37,2013-01-07 15:00:00,
2013-01-07 10:10:00,60.0,53.1,30.16,NNE,23,8.0,10.0,78,0.00,BKN,BKN,0.00,WeatherDisplay:10.37,2013-01-07 15:10:00,
2013-01-07 10:20:00,60.6,53.0,30.15,NNE,19,8.0,10.0,76,0.00,BKN,BKN,0.00,WeatherDisplay:10.37,2013-01-07 15:20:00,
2013-01-07 10:30:00,61.8,54.2,30.15,NNE,17,6.0,10.0,76,0.00,BKN,BKN,0.00,WeatherDisplay:10.37,2013-01-07 15:30:00,
2013-01-07 10:40:00,62.2,53.8,30.15,NNE,18,6.0,12.0,74,0.00,BKN,BKN,0.00,WeatherDisplay:10.37,2013-01-07 15:40:00,
2013-01-07 10:50:00,62.7,54.7,30.14,NNE,31,6.0,11.0,75,0.00,BKN,BKN,0.00,WeatherDisplay:10.37,2013-01-07 15:50:00,
2013-01-07 11:00:00,62.8,54.4,30.14,NNE,30,6.0,9.0,74,0.00,BKN,BKN,0.00,WeatherDisplay:10.37,2013-01-07 16:00:00,
2013-01-07 11:05:00,62.8,54.0,30.14,NE,34,7.0,12.0,73,0.00,BKN,BKN,0.00,WeatherDisplay:10.37,2013-01-07 16:05:00,
2013-01-07 11:10:00,63.3,54.5,30.14,NNE,24,6.0,9.0,73,0.00,BKN,BKN,0.00,WeatherDisplay:10.37,2013-01-07 16:10:00,
2013-01-07 11:20:00,64.1,54.5,30.13,NNE,25,7.0,9.0,71,0.00,BKN,BKN,0.00,WeatherDisplay:10.37,2013-01-07 16:20:00,
2013-01-07 11:30:00,65.0,54.6,30.13,NNE,20,7.0,12.0,69,0.00,BKN,BKN,0.00,WeatherDisplay:10.37,2013-01-07 16:30:00,
2013-01-07 11:40:00,65.7,54.8,30.12,NNE,31,5.0,9.0,68,0.00,BKN,BKN,0.00,WeatherDisplay:10.37,2013-01-07 16:40:00,
2013-01-07 11:50:00,67.0,55.7,30.12,NE,37,7.0,8.0,67,0.00,BKN,BKN,0.00,WeatherDisplay:10.37,2013-01-07 16:50:00,
2013-01-07 12:00:00,67.8,56.1,30.12,NNE,12,6.0,12.0,66,0.00,BKN,BKN,0.00,WeatherDisplay:10.37,2013-01-07 17:00:00,
2013-01-07 12:05:00,68.0,55.8,30.12,North,3,5.0,12.0,65,0.00,BKN,BKN,0.00,WeatherDisplay:10.37,2013-01-07 17:05:00,
2013-01-07 12:10:00,68.5,56.3,30.11,North,5,6.0,10.0,65,0.00,BKN,BKN,0.00,WeatherDisplay:10.37,2013-01-07 17:10:00,
2013-01-07 12:20:00,69.5,55.9,30.11,NNE,25,3.0,9.0,62,0.00,BKN,BKN,0.00,WeatherDisplay:10.37,2013-01-07 17:20:00,
2013-01-07 12:30:00,69.1,56.4,30.11,NNE,25,5.0,8.0,64,0.00,BKN,BKN,0.00,WeatherDisplay:10.37,2013-01-07 17:30:00,
2013-01-07 12:40:00,69.0,56.8,30.10,NNE,21,3.0,10.0,65,0.00,BKN,BKN,0.00,WeatherDisplay:10.37,2013-01-07 17:40:00,
2013-01-07 12:50:00,68.0,56.2,30.09,North,353,8.0,12.0,66,0.00,BKN,BKN,0.00,WeatherDisplay:10.37,2013-01-07 17:50:00,
2013-01-07 13:00:00,67.5,56.6,30.10,North,2,6.0,14.0,68,0.00,BKN,BKN,0.00,WeatherDisplay:10.37,2013-01-07 18:00:00,
2013-01-07 13:05:00,67.9,56.9,30.10,NNE,12,7.0,10.0,68,0.00,BKN,BKN,0.00,WeatherDisplay:10.37,2013-01-07 18:05:00,
2013-01-07 13:10:00,67.7,56.8,30.09,NNE,14,2.0,14.0,68,0.00,BKN,BKN,0.00,WeatherDisplay:10.37,2013-01-07 18:10:00,
2013-01-07 13:20:00,67.3,56.4,30.08,NNE,24,7.0,13.0,68,0.00,BKN,BKN,0.00,WeatherDisplay:10.37,2013-01-07 18:20:00,
2013-01-07 13:30:00,67.1,56.6,30.08,North,11,8.0,12.0,69,0.00,BKN,BKN,0.00,WeatherDisplay:10.37,2013-01-07 18:30:00,
2013-01-07 13:40:00,67.1,56.6,30.09,NNE,17,9.0,11.0,69,0.00,BKN,BKN,0.00,WeatherDisplay:10.37,2013-01-07 18:40:00,
2013-01-07 13:50:00,67.5,56.5,30.08,NNE,26,9.0,12.0,68,0.00,BKN,BKN,0.00,WeatherDisplay:10.37,2013-01-07 18:50:00,
2013-01-07 14:00:00,67.4,56.9,30.08,NNE,32,7.0,13.0,69,0.00,BKN,BKN,0.00,WeatherDisplay:10.37,2013-01-07 19:00:00,
2013-01-07 14:05:00,67.8,57.2,30.08,NE,37,8.0,10.0,69,0.00,BKN,BKN,0.00,WeatherDisplay:10.37,2013-01-07 19:05:00,
2013-01-07 14:10:00,67.7,56.8,30.08,NE,42,9.0,12.0,68,0.00,BKN,BKN,0.00,WeatherDisplay:10.37,2013-01-07 19:10:00,
2013-01-07 14:20:00,68.0,57.4,30.08,NE,49,6.0,12.0,69,0.00,BKN,BKN,0.00,WeatherDisplay:10.37,2013-01-07 19:20:00,
2013-01-07 14:30:00,67.6,57.5,30.08,NE,46,8.0,13.0,70,0.00,BKN,BKN,0.00,WeatherDisplay:10.37,2013-01-07 19:30:00,
2013-01-07 14:40:00,68.2,58.0,30.08,NE,40,5.0,9.0,70,0.00,BKN,BKN,0.00,WeatherDisplay:10.37,2013-01-07 19:40:00,
2013-01-07 14:50:00,68.3,58.1,30.08,NE,51,7.0,12.0,70,0.00,BKN,BKN,0.00,WeatherDisplay:10.37,2013-01-07 19:50:00,
2013-01-07 15:00:00,68.7,58.5,30.08,NNE,22,7.0,9.0,70,0.00,BKN,BKN,0.00,WeatherDisplay:10.37,2013-01-07 20:00:00,
2013-01-07 15:10:00,68.4,58.6,30.08,NNE,20,9.0,12.0,71,0.00,BKN,BKN,0.00,WeatherDisplay:10.37,2013-01-07 20:10:00,
2013-01-07 15:20:00,68.8,59.0,30.08,NNE,17,8.0,12.0,71,0.00,BKN,BKN,0.00,WeatherDisplay:10.37,2013-01-07 20:20:00,
2013-01-07 15:30:00,68.1,58.7,30.09,NNE,27,6.0,10.0,72,0.00,BKN,BKN,0.00,WeatherDisplay:10.37,2013-01-07 20:30:00,
2013-01-07 15:35:00,68.0,58.7,30.09,NNE,26,6.0,12.0,72,0.00,BKN,BKN,0.00,WeatherDisplay:10.37,2013-01-07 20:35:00,
2013-01-07 15:40:00,68.0,58.6,30.09,NNE,19,8.0,12.0,72,0.00,BKN,BKN,0.00,WeatherDisplay:10.37,2013-01-07 20:40:00,
2013-01-07 15:50:00,68.2,58.8,30.09,NNE,30,8.0,12.0,72,0.00,BKN,BKN,0.00,WeatherDisplay:10.37,2013-01-07 20:50:00,
2013-01-07 16:00:00,68.1,58.7,30.09,NE,41,8.0,12.0,72,0.00,BKN,BKN,0.00,WeatherDisplay:10.37,2013-01-07 21:00:00,
2013-01-07 16:05:00,68.0,58.6,30.09,NE,46,9.0,10.0,72,0.00,OVC,OVC,0.00,WeatherDisplay:10.37,2013-01-07 21:05:00,
2013-01-07 16:10:00,68.0,58.6,30.09,NE,40,6.0,12.0,72,0.00,OVC,OVC,0.00,WeatherDisplay:10.37,2013-01-07 21:10:00,
2013-01-07 16:20:00,68.0,59.0,30.09,NNE,29,3.0,8.0,73,0.00,OVC,OVC,0.00,WeatherDisplay:10.37,2013-01-07 21:20:00,
2013-01-07 16:30:00,67.6,59.1,30.09,NE,39,5.0,8.0,74,0.00,OVC,OVC,0.00,WeatherDisplay:10.37,2013-01-07 21:30:00,
2013-01-07 16:40:00,67.6,59.0,30.10,NNE,31,7.0,9.0,74,0.00,OVC,OVC,0.00,WeatherDisplay:10.37,2013-01-07 21:40:00,
2013-01-07 16:50:00,67.3,59.1,30.10,NNE,25,7.0,8.0,75,0.00,OVC,OVC,0.00,WeatherDisplay:10.37,2013-01-07 21:50:00,
2013-01-07 17:00:00,67.2,59.4,30.10,NNE,15,3.0,6.0,76,0.00,OVC,OVC,0.00,WeatherDisplay:10.37,2013-01-07 22:00:00,
2013-01-07 17:05:00,67.0,58.8,30.10,NNE,15,8.0,9.0,75,0.00,OVC,OVC,0.00,WeatherDisplay:10.37,2013-01-07 22:05:00,
2013-01-07 17:10:00,66.9,59.1,30.11,NNE,13,5.0,9.0,76,0.00,OVC,OVC,0.00,WeatherDisplay:10.37,2013-01-07 22:10:00,
2013-01-07 17:20:00,66.9,59.1,30.11,NNE,21,8.0,10.0,76,0.00,OVC,OVC,0.00,WeatherDisplay:10.37,2013-01-07 22:20:00,
2013-01-07 17:30:00,66.7,59.3,30.11,NNE,22,6.0,9.0,77,0.00,OVC,OVC,0.00,WeatherDisplay:10.37,2013-01-07 22:30:00,
2013-01-07 17:40:00,66.7,59.3,30.11,NNE,22,6.0,8.0,77,0.00,OVC,OVC,0.00,WeatherDisplay:10.37,2013-01-07 22:40:00,
2013-01-07 17:50:00,66.4,59.3,30.11,North,10,5.0,9.0,78,0.00,OVC,OVC,0.00,WeatherDisplay:10.37,2013-01-07 22:50:00,
2013-01-07 18:00:00,65.5,59.2,30.12,NNW,328,3.0,8.0,80,0.00,OVC,OVC,0.00,WeatherDisplay:10.37,2013-01-07 23:00:00,
2013-01-07 18:05:00,65.0,59.4,30.11,NNW,344,6.0,8.0,82,0.00,OVC,OVC,0.00,WeatherDisplay:10.37,2013-01-07 23:05:00,
2013-01-07 18:10:00,64.7,59.4,30.12,North,357,6.0,12.0,83,0.00,OVC,OVC,0.00,WeatherDisplay:10.37,2013-01-07 23:10:00,
2013-01-07 18:20:00,64.4,59.1,30.12,North,359,6.0,9.0,83,0.00,OVC,OVC,0.00,WeatherDisplay:10.37,2013-01-07 23:20:00,
2013-01-07 18:30:00,64.1,59.2,30.12,North,5,5.0,8.0,84,0.00,OVC,OVC,0.00,WeatherDisplay:10.37,2013-01-07 23:30:00,
2013-01-07 18:40:00,64.0,59.1,30.12,North,6,3.0,7.0,84,0.00,OVC,OVC,0.00,WeatherDisplay:10.37,2013-01-07 23:40:00,
2013-01-07 18:50:00,64.1,59.5,30.12,North,8,5.0,8.0,85,0.00,OVC,OVC,0.00,WeatherDisplay:10.37,2013-01-07 23:50:00,
2013-01-07 19:00:00,64.2,59.6,30.12,NNE,13,3.0,6.0,85,0.00,OVC,OVC,0.00,WeatherDisplay:10.37,2013-01-08 00:00:00,
2013-01-07 19:05:00,64.2,59.6,30.12,North,8,3.0,9.0,85,0.00,OVC,OVC,0.00,WeatherDisplay:10.37,2013-01-08 00:05:00,
2013-01-07 19:10:00,64.2,59.6,30.12,North,8,8.0,9.0,85,0.00,OVC,OVC,0.00,WeatherDisplay:10.37,2013-01-08 00:10:00,
2013-01-07 19:20:00,64.0,59.8,30.12,North,358,6.0,8.0,86,0.00,OVC,OVC,0.00,WeatherDisplay:10.37,2013-01-08 00:20:00,
2013-01-07 19:30:00,64.0,59.8,30.12,NNE,20,5.0,6.0,86,0.00,OVC,OVC,0.00,WeatherDisplay:10.37,2013-01-08 00:30:00,
2013-01-07 19:35:00,64.0,60.1,30.12,NNE,27,2.0,8.0,87,0.00,OVC,OVC,0.00,WeatherDisplay:10.37,2013-01-08 00:35:00,
2013-01-07 19:40:00,64.0,60.1,30.12,NNE,26,3.0,5.0,87,0.00,OVC,OVC,0.00,WeatherDisplay:10.37,2013-01-08 00:40:00,
2013-01-07 19:50:00,64.2,60.2,30.12,North,355,5.0,7.0,87,0.00,OVC,OVC,0.00,WeatherDisplay:10.37,2013-01-08 00:50:00,
2013-01-07 20:00:00,64.2,60.3,30.13,North,8,2.0,5.0,87,0.00,OVC,OVC,0.00,WeatherDisplay:10.37,2013-01-08 01:00:00,
2013-01-07 20:05:00,64.2,60.3,30.13,North,2,2.0,5.0,87,0.00,OVC,OVC,0.00,WeatherDisplay:10.37,2013-01-08 01:05:00,
2013-01-07 20:10:00,64.2,60.3,30.13,North,7,5.0,7.0,87,0.00,OVC,OVC,0.00,WeatherDisplay:10.37,2013-01-08 01:10:00,
2013-01-07 20:20:00,64.2,60.3,30.13,North,5,5.0,8.0,87,0.00,OVC,OVC,0.00,WeatherDisplay:10.37,2013-01-08 01:20:00,
2013-01-07 20:30:00,64.0,60.4,30.13,North,6,5.0,8.0,88,0.00,OVC,OVC,0.00,WeatherDisplay:10.37,2013-01-08 01:30:00,
2013-01-07 20:40:00,64.0,60.4,30.12,NNE,22,6.0,8.0,88,0.00,OVC,OVC,0.00,WeatherDisplay:10.37,2013-01-08 01:40:00,
2013-01-07 20:50:00,64.2,60.6,30.13,NNE,17,6.0,9.0,88,0.00,OVC,OVC,0.00,WeatherDisplay:10.37,2013-01-08 01:50:00,
2013-01-07 21:00:00,64.1,60.5,30.13,NNE,16,3.0,7.0,88,0.00,OVC,OVC,0.00,WeatherDisplay:10.37,2013-01-08 02:00:00,
2013-01-07 21:05:00,64.1,60.5,30.13,North,11,5.0,7.0,88,0.00,OVC,OVC,0.00,WeatherDisplay:10.37,2013-01-08 02:05:00,
2013-01-07 21:10:00,64.2,60.6,30.12,NNE,13,2.0,7.0,88,0.00,OVC,OVC,0.00,WeatherDisplay:10.37,2013-01-08 02:10:00,
2013-01-07 21:20:00,64.2,60.6,30.12,NNE,16,2.0,5.0,88,0.00,OVC,OVC,0.00,WeatherDisplay:10.37,2013-01-08 02:20:00,
2013-01-07 21:30:00,64.2,60.6,30.12,North,4,2.0,6.0,88,0.00,OVC,OVC,0.00,WeatherDisplay:10.37,2013-01-08 02:30:00,
2013-01-07 21:40:00,64.1,60.5,30.12,North,10,3.0,8.0,88,0.00,OVC,OVC,0.00,WeatherDisplay:10.37,2013-01-08 02:40:00,
2013-01-07 21:50:00,64.0,60.7,30.12,North,9,2.0,5.0,89,0.00,OVC,OVC,0.00,WeatherDisplay:10.37,2013-01-08 02:50:00,
2013-01-07 22:00:00,64.0,60.7,30.12,North,1,2.0,6.0,89,0.00,OVC,OVC,0.00,WeatherDisplay:10.37,2013-01-08 03:00:00,
2013-01-07 22:05:00,64.0,60.7,30.12,NNE,12,3.0,6.0,89,0.00,-RA,-RA,0.00,WeatherDisplay:10.37,2013-01-08 03:05:00,
2013-01-07 22:10:00,63.9,60.6,30.12,NNE,22,1.0,7.0,89,0.00,-RA,-RA,0.00,WeatherDisplay:10.37,2013-01-08 03:10:00,
2013-01-07 22:20:00,63.9,60.9,30.12,NNE,13,1.0,6.0,90,0.00,-RA,-RA,0.00,WeatherDisplay:10.37,2013-01-08 03:20:00,
2013-01-07 22:30:00,63.7,60.7,30.12,NNE,24,2.0,5.0,90,0.00,-RA,-RA,0.00,WeatherDisplay:10.37,2013-01-08 03:30:00,
2013-01-07 22:40:00,63.7,60.7,30.12,NNE,23,3.0,5.0,90,0.00,-RA,-RA,0.00,WeatherDisplay:10.37,2013-01-08 03:40:00,
2013-01-07 22:50:00,63.5,60.8,30.11,North,8,2.0,6.0,91,0.00,-RA,-RA,0.00,WeatherDisplay:10.37,2013-01-08 03:50:00,
2013-01-07 23:00:00,63.3,60.6,30.11,NNE,12,2.0,7.0,91,0.00,-RA,-RA,0.00,WeatherDisplay:10.37,2013-01-08 04:00:00,
2013-01-07 23:05:00,63.3,60.6,30.12,North,6,3.0,5.0,91,0.00,-RA,-RA,0.00,WeatherDisplay:10.37,2013-01-08 04:05:00,
2013-01-07 23:10:00,63.3,60.6,30.11,North,11,2.0,4.0,91,0.00,-RA,-RA,0.00,WeatherDisplay:10.37,2013-01-08 04:10:00,
2013-01-07 23:20:00,63.3,60.6,30.11,NNE,31,3.0,5.0,91,0.00,BKN,BKN,0.00,WeatherDisplay:10.37,2013-01-08 04:20:00,
2013-01-07 23:30:00,63.3,60.6,30.11,NNE,18,5.0,6.0,91,0.00,BKN,BKN,0.00,WeatherDisplay:10.37,2013-01-08 04:30:00,
2013-01-07 23:40:00,63.3,60.3,30.10,North,10,2.0,5.0,90,0.00,BKN,BKN,0.00,WeatherDisplay:10.37,2013-01-08 04:40:00,
2013-01-07 23:50:00,63.1,60.2,30.10,NNE,21,1.0,5.0,90,0.00,BKN,BKN,0.00,WeatherDisplay:10.37,2013-01-08 04:50:00,